Time;durP1;ratioP1;P1;durP2;ratioP2;P2;SDS_P1;SDS_P2;PMS_P1;PMS_P2;Temp;Humidity;BMP_temperature;BMP_pressure;BME280_temperature;BME280_humidity;BME280_pressure;Samples;Min_cycle;Max_cycle;Signal;HPM_P1;HPM_P2
2021/01/16 00:05:46;;;;;;;1999.90;999.90;;;;;;;0.82;53.08;102171.44;15742339;28;20050;-66
2021/01/16 00:13:19;;;;;;;1999.90;999.90;;;;;;;0.97;53.37;102173.78;15726870;28;20040;-63
2021/01/16 00:20:54;;;;;;;1999.90;999.90;;;;;;;0.86;53.33;102175.41;15742332;28;20083;-66
2021/01/16 00:28:29;;;;;;;1999.90;999.90;;;;;;;0.65;53.70;102177.81;15723880;28;20086;-63
2021/01/16 00:36:04;;;;;;;1999.90;999.90;;;;;;;0.71;53.87;102163.97;15724756;28;20045;-66
2021/01/16 00:43:36;;;;;;;1999.90;999.90;;;;;;;0.95;53.13;102164.94;15740457;28;20041;-65
2021/01/16 00:51:08;;;;;;;1999.90;999.90;;;;;;;0.91;53.44;102176.63;15740404;28;20051;-65
2021/01/16 00:58:47;;;;;;;1999.90;999.90;;;;;;;0.92;52.81;102167.28;15705709;28;20067;-64
2021/01/16 01:06:41;;;;;;;;;;;;;;;0.95;52.74;102162.19;15705554;28;20094;-65
2021/01/16 01:14:13;;;;;;;1999.90;999.90;;;;;;;1.13;52.95;102158.50;15722052;28;19965;-65
2021/01/16 01:21:45;;;;;;;1999.90;999.90;;;;;;;1.04;53.08;102163.53;15721658;28;20464;-65
2021/01/16 01:29:17;;;;;;;1999.90;999.90;;;;;;;1.24;52.80;102167.88;15738159;28;20575;-65
2021/01/16 01:36:49;;;;;;;1999.90;999.90;;;;;;;1.00;52.33;102150.47;15738176;28;20040;-62
2021/01/16 01:44:21;;;;;;;1999.90;999.90;;;;;;;1.22;53.25;102168.09;15720343;28;20131;-63
2021/01/16 01:51:53;;;;;;;1999.90;999.90;;;;;;;1.39;53.02;102165.53;15728584;28;20078;-62
2021/01/16 01:59:27;;;;;;;1999.90;999.90;;;;;;;1.31;53.67;102163.94;15759078;28;20041;-65
2021/01/16 02:07:01;;;;;;;1999.90;999.90;;;;;;;0.87;54.74;102146.00;15740748;28;20041;-64
2021/01/16 02:14:36;;;;;;;1999.90;999.90;;;;;;;0.94;54.13;102152.25;15759138;28;20045;-62
2021/01/16 02:22:12;;;;;;;1999.90;999.90;;;;;;;0.85;55.47;102139.91;15760008;28;20138;-63
2021/01/16 02:29:46;;;;;;;1999.90;999.90;;;;;;;0.65;55.42;102142.94;15758477;28;20155;-64
2021/01/16 02:37:43;;;;;;;1999.90;999.90;;;;;;;0.32;56.81;102123.31;15740257;28;20040;-64
2021/01/16 02:45:20;;;;;;;1999.90;999.90;;;;;;;0.52;56.75;102122.00;15757258;28;20048;-64
2021/01/16 02:52:56;;;;;;;1999.90;999.90;;;;;;;0.57;57.23;102133.09;15757746;28;20041;-63
2021/01/16 03:00:30;;;;;;;1999.90;999.90;;;;;;;0.19;58.65;102118.81;15757891;28;20045;-63
2021/01/16 03:08:03;;;;;;;1999.90;999.90;;;;;;;0.57;58.40;102124.03;15745195;28;20140;-63
2021/01/16 03:15:37;;;;;;;1999.90;999.90;;;;;;;0.24;59.07;102114.31;15728226;28;20390;-62
2021/01/16 03:23:09;;;;;;;1999.90;999.90;;;;;;;0.54;60.11;102117.09;15746404;28;20049;-61
2021/01/16 03:30:42;;;;;;;1999.90;999.90;;;;;;;0.82;58.37;102110.97;15728352;28;20146;-63
2021/01/16 03:38:15;;;;;;;1999.90;999.90;;;;;;;0.59;60.38;102097.16;15745180;28;20040;-62
2021/01/16 03:45:47;;;;;;;1999.90;999.90;;;;;;;0.50;60.53;102096.66;15727154;28;20057;-63
2021/01/16 03:53:19;;;;;;;1999.90;999.90;;;;;;;0.60;60.92;102098.00;15743428;28;20039;-63
2021/01/16 04:00:52;;;;;;;1999.90;999.90;;;;;;;0.76;60.04;102089.94;15743667;28;20361;-64
2021/01/16 04:08:24;;;;;;;1999.90;999.90;;;;;;;0.69;61.11;102072.72;15742912;28;20374;-66
2021/01/16 04:15:57;;;;;;;1999.90;999.90;;;;;;;0.80;61.30;102071.06;15734090;28;20482;-65
2021/01/16 04:23:28;;;;;;;1999.90;999.90;;;;;;;0.34;62.54;102061.59;15743187;28;20072;-66
2021/01/16 04:31:01;;;;;;;1999.90;999.90;;;;;;;0.48;63.24;102054.84;15724352;28;20056;-66
2021/01/16 04:38:37;;;;;;;1999.90;999.90;;;;;;;0.96;62.40;102064.91;15723972;28;20040;-65
2021/01/16 04:46:09;;;;;;;1999.90;999.90;;;;;;;0.60;62.76;102051.28;15721723;28;20041;-64
2021/01/16 04:53:42;;;;;;;1999.90;999.90;;;;;;;0.75;62.92;102041.56;15723762;28;20506;-66
2021/01/16 05:01:20;;;;;;;1999.90;999.90;;;;;;;0.81;63.99;102045.25;15742194;28;20049;-65
2021/01/16 05:08:54;;;;;;;1999.90;999.90;;;;;;;0.92;64.00;102047.19;15741625;28;20515;-64
2021/01/16 05:16:36;;;;;;;1999.90;999.90;;;;;;;1.32;62.46;102041.00;15741138;28;20134;-65
2021/01/16 05:24:10;;;;;;;1999.90;999.90;;;;;;;1.13;63.70;102038.38;15722413;28;20068;-64
2021/01/16 05:31:48;;;;;;;1999.90;999.90;;;;;;;1.11;63.79;102037.78;15740245;28;20223;-66
2021/01/16 05:39:21;;;;;;;1999.90;999.90;;;;;;;1.04;64.83;102031.56;15726503;28;20044;-64
2021/01/16 05:46:54;;;;;;;1999.90;999.90;;;;;;;1.10;64.07;102018.78;15740565;28;20136;-64
2021/01/16 05:54:28;;;;;;;1999.90;999.90;;;;;;;1.12;63.46;102020.19;15740438;28;20305;-65
2021/01/16 06:02:03;;;;;;;1999.90;999.90;;;;;;;1.11;64.09;102017.69;15740120;28;20428;-67
2021/01/16 06:09:37;;;;;;;1999.90;999.90;;;;;;;1.11;63.93;102013.03;15740242;28;20086;-66
2021/01/16 06:17:14;;;;;;;1999.90;999.90;;;;;;;1.09;64.20;102003.34;15739605;28;20048;-65
2021/01/16 06:24:48;;;;;;;1999.90;999.90;;;;;;;1.07;64.14;102006.34;15739580;28;20402;-64
2021/01/16 06:32:22;;;;;;;;;;;;;;;1.36;62.85;101993.56;15722215;28;20143;-64
2021/01/16 06:39:57;;;;;;;1999.90;999.90;;;;;;;1.10;63.37;101985.78;15746785;28;20015;-65
2021/01/16 06:47:32;;;;;;;1999.90;999.90;;;;;;;1.04;62.98;101976.59;15750192;28;20094;-63
2021/01/16 06:55:06;;;;;;;1999.90;999.90;;;;;;;1.03;63.65;101993.28;15715222;28;20101;-65
2021/01/16 07:02:40;;;;;;;1999.90;999.90;;;;;;;1.17;63.06;101983.75;15751315;28;20101;-64
2021/01/16 07:10:17;;;;;;;1999.90;999.90;;;;;;;0.84;64.53;101976.94;15750353;28;20155;-64
2021/01/16 07:17:50;;;;;;;1999.90;999.90;;;;;;;0.67;64.08;101978.69;15730813;28;20070;-66
2021/01/16 07:25:22;;;;;;;1999.90;999.90;;;;;;;0.96;63.83;101984.34;15730053;28;20131;-62
2021/01/16 07:32:55;;;;;;;1999.90;999.90;;;;;;;0.92;63.93;101983.97;15748200;28;20135;-67
2021/01/16 07:40:27;;;;;;;1999.90;999.90;;;;;;;0.98;63.52;101988.53;15715156;28;20150;-64
2021/01/16 07:48:01;;;;;;;1999.90;999.90;;;;;;;0.86;64.38;101979.44;15740512;28;20029;-66
2021/01/16 07:55:45;;;;;;;;;;;;;;;0.67;64.68;101984.19;15650867;28;20041;-64
2021/01/16 08:03:27;;;;;;;1999.90;999.90;;;;;;;1.04;64.28;101979.34;15682971;28;20047;-65
2021/01/16 08:11:03;;;;;;;1999.90;999.90;;;;;;;1.13;63.57;101977.03;15665758;28;20048;-66
2021/01/16 08:18:38;;;;;;;1999.90;999.90;;;;;;;1.14;63.85;101971.31;15683440;28;20032;-65
2021/01/16 08:26:10;;;;;;;1999.90;999.90;;;;;;;0.73;65.51;101964.03;15682104;28;20625;-65
2021/01/16 08:33:43;;;;;;;1999.90;999.90;;;;;;;1.02;64.83;101953.97;15681415;28;20067;-67
2021/01/16 08:41:24;;;;;;;1999.90;999.90;;;;;;;1.05;64.67;101945.28;15681364;28;20466;-63
2021/01/16 08:48:59;;;;;;;1999.90;999.90;;;;;;;0.93;65.01;101952.66;15681516;28;20052;-65
2021/01/16 08:56:31;;;;;;;1999.90;999.90;;;;;;;0.64;66.18;101934.38;15684913;28;20056;-64
2021/01/16 09:04:20;;;;;;;1999.90;999.90;;;;;;;0.66;65.48;101924.00;15647293;28;20131;-63
2021/01/16 09:12:03;;;;;;;1999.90;999.90;;;;;;;1.13;64.80;101922.06;15647547;28;20106;-66
2021/01/16 09:19:36;;;;;;;1999.90;999.90;;;;;;;0.73;65.37;101928.31;15680275;28;20567;-64
2021/01/16 09:27:20;;;;;;;1999.90;999.90;;;;;;;1.22;63.36;101931.59;15662331;28;20037;-63
2021/01/16 09:34:53;;;;;;;;;;;;;;;1.73;62.58;101936.28;15661107;28;20045;-65
2021/01/16 09:42:25;;;;;;;1999.90;999.90;;;;;;;1.62;62.71;101937.16;15661013;28;19928;-64
2021/01/16 09:50:09;;;;;;;1999.90;999.90;;;;;;;1.35;62.70;101925.00;15677719;28;20453;-67
2021/01/16 09:57:42;;;;;;;1999.90;999.90;;;;;;;1.54;62.04;101915.50;15677745;28;20037;-63
2021/01/16 10:05:16;;;;;;;1999.90;999.90;;;;;;;1.74;61.82;101909.59;15771339;22;20055;-60
2021/01/16 10:12:48;;;;;;;1999.90;999.90;;;;;;;2.08;60.39;101910.50;15770394;28;20320;-60
2021/01/16 10:20:21;;;;;;;1999.90;999.90;;;;;;;1.96;60.18;101893.22;15730518;28;20055;-60
2021/01/16 10:27:54;;;;;;;1999.90;999.90;;;;;;;2.17;59.80;101888.91;15747565;28;20048;-60
2021/01/16 10:35:29;;;;;;;1999.90;999.90;;;;;;;2.53;59.38;101880.19;15745936;28;20048;-59
2021/01/16 10:43:00;;;;;;;1999.90;999.90;;;;;;;1.97;59.88;101851.66;15744977;28;20540;-60
2021/01/16 10:50:34;;;;;;;1999.90;999.90;;;;;;;2.06;59.84;101841.09;15744781;28;20378;-62
2021/01/16 10:58:07;;;;;;;1999.90;999.90;;;;;;;2.14;59.51;101842.59;15743380;28;20072;-59
2021/01/16 11:05:43;;;;;;;1999.90;999.90;;;;;;;2.15;58.23;101831.31;15726340;28;20048;-61
2021/01/16 11:13:22;;;;;;;1999.90;999.90;;;;;;;2.66;57.16;101817.53;15725308;28;20123;-57
2021/01/16 11:21:01;;;;;;;1999.90;999.90;;;;;;;2.37;57.47;101814.03;15757427;28;20435;-60
2021/01/16 11:28:47;;;;;;;1999.90;999.90;;;;;;;2.33;57.95;101807.38;15724447;28;20060;-61
2021/01/16 11:36:20;;;;;;;1999.90;999.90;;;;;;;2.60;56.45;101809.19;15773759;28;20136;-60
2021/01/16 11:43:57;;;;;;;1999.90;999.90;;;;;;;2.42;56.73;101795.69;15746152;28;20098;-59
2021/01/16 11:51:30;;;;;;;1999.90;999.90;;;;;;;2.57;56.99;101792.31;15776727;28;20040;-61
2021/01/16 11:59:03;;;;;;;1999.90;999.90;;;;;;;2.42;57.65;101783.84;15742593;28;20044;-59
2021/01/16 12:06:37;;;;;;;1999.90;999.90;;;;;;;2.83;56.21;101772.28;15767111;28;20131;-58
2021/01/16 12:14:10;;;;;;;1999.90;999.90;;;;;;;2.81;57.08;101768.09;15741186;28;20037;-60
2021/01/16 12:21:45;;;;;;;1999.90;999.90;;;;;;;2.87;56.31;101748.63;15722774;28;20504;-60
2021/01/16 12:29:22;;;;;;;1999.90;999.90;;;;;;;3.16;55.68;101742.91;15739566;28;20048;-59
2021/01/16 12:36:55;;;;;;;1999.90;999.90;;;;;;;2.55;56.84;101720.09;15723854;28;20404;-57
2021/01/16 12:44:28;;;;;;;1999.90;999.90;;;;;;;3.01;54.75;101717.91;15716530;28;20143;-58
2021/01/16 12:52:01;;;;;;;1999.90;999.90;;;;;;;3.15;54.76;101703.47;15757453;28;20048;-59
2021/01/16 12:59:33;;;;;;;1999.90;999.90;;;;;;;3.15;54.90;101703.47;15773993;28;20127;-60
2021/01/16 13:07:05;;;;;;;1999.90;999.90;;;;;;;3.82;52.42;101713.19;15711368;28;20390;-60
2021/01/16 13:14:51;;;;;;;1999.90;999.90;;;;;;;4.91;50.93;101706.09;15740870;28;20059;-60
2021/01/16 13:22:26;;;;;;;1999.90;999.90;;;;;;;4.06;52.03;101697.06;15718408;28;20139;-60
2021/01/16 13:30:05;;;;;;;1999.90;999.90;;;;;;;3.35;54.40;101702.84;15745543;28;20040;-59
2021/01/16 13:37:39;;;;;;;1999.90;999.90;;;;;;;2.00;57.75;101702.53;15747575;28;20048;-60
2021/01/16 13:45:11;;;;;;;;;;;;;;;2.83;56.48;101716.31;15720405;28;20453;-60
2021/01/16 13:52:45;;;;;;;1999.90;999.90;;;;;;;2.26;57.63;101716.66;15718743;28;19955;-61
2021/01/16 14:00:18;;;;;;;1999.90;999.90;;;;;;;2.13;58.62;101709.59;15733475;28;20037;-59
2021/01/16 14:07:51;;;;;;;1999.90;999.90;;;;;;;2.33;57.44;101703.53;15734470;28;20075;-58
2021/01/16 14:15:23;;;;;;;1999.90;999.90;;;;;;;2.05;57.53;101706.41;15733981;28;20072;-60
2021/01/16 14:22:56;;;;;;;1999.90;999.90;;;;;;;1.85;57.60;101695.94;15761975;28;20067;-60
2021/01/16 14:30:29;;;;;;;1999.90;999.90;;;;;;;2.34;56.87;101696.13;15707689;28;20397;-68
2021/01/16 14:38:03;;;;;;;;;;;;;;;2.42;57.15;101713.03;15699427;28;20044;-60
2021/01/16 14:45:37;;;;;;;1999.90;999.90;;;;;;;2.22;57.23;101705.31;15732632;28;19920;-59
2021/01/16 14:53:24;;;;;;;1999.90;999.90;;;;;;;2.59;55.63;101702.78;15765082;28;20040;-58
2021/01/16 15:00:56;;;;;;;1999.90;999.90;;;;;;;2.13;55.22;101695.00;15741946;28;20056;-61
2021/01/16 15:08:29;;;;;;;1999.90;999.90;;;;;;;2.42;55.63;101695.69;15744184;28;20075;-61
2021/01/16 15:16:02;;;;;;;1999.90;999.90;;;;;;;2.41;55.66;101699.53;15742156;28;20105;-61
2021/01/16 15:23:35;;;;;;;1999.90;999.90;;;;;;;2.27;56.20;101690.78;15762677;28;20055;-61
2021/01/16 15:31:10;;;;;;;1999.90;999.90;;;;;;;2.05;56.32;101692.66;15769808;28;20093;-62
2021/01/16 15:38:43;;;;;;;1999.90;999.90;;;;;;;1.61;55.94;101684.25;15755062;28;20059;-59
2021/01/16 15:46:16;;;;;;;1999.90;999.90;;;;;;;2.09;55.13;101680.91;15738920;28;20036;-60
2021/01/16 15:53:49;;;;;;;1999.90;999.90;;;;;;;2.02;54.72;101672.81;15743104;28;20044;-58
2021/01/16 16:01:21;;;;;;;1999.90;999.90;;;;;;;2.02;55.06;101648.03;15748542;22;20052;-63
2021/01/16 16:08:55;;;;;;;1999.90;999.90;;;;;;;2.11;55.04;101653.09;15788725;28;20057;-63
2021/01/16 16:16:27;;;;;;;1999.90;999.90;;;;;;;1.92;54.85;101650.63;15745418;28;20037;-65
2021/01/16 16:23:59;;;;;;;1999.90;999.90;;;;;;;2.11;54.83;101651.19;15726563;28;20052;-63
2021/01/16 16:31:33;;;;;;;1999.90;999.90;;;;;;;1.98;54.79;101655.13;15731819;28;20051;-64
2021/01/16 16:39:05;;;;;;;1999.90;999.90;;;;;;;2.14;54.71;101653.44;15744230;28;20472;-63
2021/01/16 16:46:37;;;;;;;1999.90;999.90;;;;;;;2.17;53.92;101639.13;15744028;28;20044;-63
2021/01/16 16:54:10;;;;;;;1999.90;999.90;;;;;;;2.33;53.76;101642.94;15712879;28;20527;-63
2021/01/16 17:01:41;;;;;;;1999.90;999.90;;;;;;;2.51;53.57;101637.13;15714293;28;20051;-63
2021/01/16 17:09:14;;;;;;;1999.90;999.90;;;;;;;2.41;54.23;101633.41;15709464;28;20072;-64
2021/01/16 17:16:45;;;;;;;1999.90;999.90;;;;;;;2.09;55.05;101625.84;15738975;28;20044;-63
2021/01/16 17:24:18;;;;;;;1999.90;999.90;;;;;;;2.17;55.69;101608.84;15744631;28;20041;-63
2021/01/16 17:31:50;;;;;;;1999.90;999.90;;;;;;;2.33;55.54;101598.88;15745294;28;20131;-63
2021/01/16 17:39:22;;;;;;;1999.90;999.90;;;;;;;2.13;56.52;101587.59;15743535;28;20044;-63
2021/01/16 17:46:55;;;;;;;1999.90;999.90;;;;;;;2.36;55.40;101597.50;15742390;28;20161;-63
2021/01/16 17:54:27;;;;;;;1999.90;999.90;;;;;;;2.46;55.11;101594.88;15742733;28;20506;-64
2021/01/16 18:01:59;;;;;;;1999.90;999.90;;;;;;;2.43;54.75;101600.91;15725617;28;20393;-64
2021/01/16 18:09:32;;;;;;;1999.90;999.90;;;;;;;2.54;55.19;101591.69;15726198;28;20146;-61
2021/01/16 18:17:04;;;;;;;1999.90;999.90;;;;;;;2.19;55.50;101584.66;15704745;28;20446;-62
2021/01/16 18:24:36;;;;;;;1999.90;999.90;;;;;;;2.28;55.85;101574.00;15704095;28;20493;-65
2021/01/16 18:32:11;;;;;;;1999.90;999.90;;;;;;;2.31;55.38;101579.84;15710455;28;20044;-62
2021/01/16 18:39:43;;;;;;;1999.90;999.90;;;;;;;2.15;55.78;101579.91;15749774;28;20497;-65
2021/01/16 18:47:15;;;;;;;1999.90;999.90;;;;;;;2.34;55.87;101572.16;15732963;28;20089;-63
2021/01/16 18:54:48;;;;;;;1999.90;999.90;;;;;;;2.50;55.01;101572.09;15751352;28;20048;-63
2021/01/16 19:02:20;;;;;;;1999.90;999.90;;;;;;;2.17;55.94;101564.78;15733917;28;20044;-57
2021/01/16 19:09:53;;;;;;;1999.90;999.90;;;;;;;2.19;56.16;101561.78;15717497;28;20045;-65
2021/01/16 19:17:24;;;;;;;1999.90;999.90;;;;;;;2.33;55.64;101552.03;15734120;28;20051;-62
2021/01/16 19:24:57;;;;;;;1999.90;999.90;;;;;;;2.33;55.34;101562.22;15749979;28;20577;-63
2021/01/16 19:32:28;;;;;;;1999.90;999.90;;;;;;;2.12;55.96;101553.72;15750582;28;20097;-61
2021/01/16 19:40:01;;;;;;;1999.90;999.90;;;;;;;2.17;55.61;101551.03;15730622;28;20054;-62
2021/01/16 19:47:33;;;;;;;1999.90;999.90;;;;;;;2.04;55.64;101545.91;15714386;28;20052;-62
2021/01/16 19:55:08;;;;;;;1999.90;999.90;;;;;;;2.16;55.34;101534.75;15731839;28;20122;-62
2021/01/16 20:02:40;;;;;;;1999.90;999.90;;;;;;;1.83;55.93;101531.03;15731291;28;20052;-63
2021/01/16 20:10:13;;;;;;;1999.90;999.90;;;;;;;2.08;55.35;101526.94;15732516;28;20048;-64
2021/01/16 20:17:45;;;;;;;1999.90;999.90;;;;;;;2.02;54.92;101526.06;15747455;28;20060;-63
2021/01/16 20:25:17;;;;;;;1999.90;999.90;;;;;;;1.93;55.58;101527.59;15726286;28;20537;-63
2021/01/16 20:32:49;;;;;;;1999.90;999.90;;;;;;;2.10;55.20;101519.28;15745653;28;20075;-65
2021/01/16 20:40:21;;;;;;;1999.90;999.90;;;;;;;2.22;55.28;101528.22;15710585;28;20052;-63
2021/01/16 20:47:54;;;;;;;1999.90;999.90;;;;;;;2.09;55.27;101525.88;15743694;28;20041;-60
2021/01/16 20:55:26;;;;;;;1999.90;999.90;;;;;;;1.83;56.59;101519.22;15749421;28;20039;-63
2021/01/16 21:02:58;;;;;;;1999.90;999.90;;;;;;;1.92;55.77;101504.75;15747744;28;20550;-63
2021/01/16 21:10:31;;;;;;;1999.90;999.90;;;;;;;1.90;56.36;101504.19;15747337;28;20409;-64
2021/01/16 21:18:02;;;;;;;1999.90;999.90;;;;;;;1.79;56.76;101507.06;15728423;28;20378;-62
2021/01/16 21:25:35;;;;;;;1999.90;999.90;;;;;;;1.95;56.29;101501.47;15741137;28;20047;-62
2021/01/16 21:33:08;;;;;;;1999.90;999.90;;;;;;;2.23;55.83;101499.59;15728915;28;20532;-63
2021/01/16 21:40:40;;;;;;;1999.90;999.90;;;;;;;2.40;55.27;101511.38;15724180;28;20508;-64
2021/01/16 21:48:12;;;;;;;1999.90;999.90;;;;;;;2.33;55.56;101509.91;15737476;28;20044;-62
2021/01/16 21:55:46;;;;;;;1999.90;999.90;;;;;;;2.44;55.00;101506.16;15724032;28;20044;-64
2021/01/16 22:03:18;;;;;;;1999.90;999.90;;;;;;;2.31;55.51;101516.50;15721641;28;20059;-61
2021/01/16 22:10:53;;;;;;;1999.90;999.90;;;;;;;2.36;55.62;101509.38;15749601;28;20749;-64
2021/01/16 22:18:24;;;;;;;1999.90;999.90;;;;;;;2.34;55.99;101511.56;15719687;28;20044;-65
2021/01/16 22:25:57;;;;;;;1999.90;999.90;;;;;;;2.30;55.44;101517.59;15716124;28;20131;-63
2021/01/16 22:33:28;;;;;;;1999.90;999.90;;;;;;;2.18;55.94;101519.63;15726459;28;20064;-64
2021/01/16 22:41:01;;;;;;;1999.90;999.90;;;;;;;2.29;55.77;101518.69;15744286;28;20140;-65
2021/01/16 22:48:33;;;;;;;1999.90;999.90;;;;;;;2.21;55.84;101513.63;15746164;28;20100;-61
2021/01/16 22:56:07;;;;;;;1999.90;999.90;;;;;;;1.97;57.37;101515.81;15751065;28;20052;-64
2021/01/16 23:03:40;;;;;;;1999.90;999.90;;;;;;;1.73;57.44;101497.88;15717483;28;20099;-62
2021/01/16 23:11:14;;;;;;;1999.90;999.90;;;;;;;1.54;58.17;101513.03;15753007;28;20069;-63
2021/01/16 23:18:46;;;;;;;1999.90;999.90;;;;;;;1.42;58.08;101505.72;15731606;28;20036;-63
2021/01/16 23:26:18;;;;;;;1999.90;999.90;;;;;;;1.50;57.77;101504.47;15749739;28;20404;-63
2021/01/16 23:33:50;;;;;;;1999.90;999.90;;;;;;;1.54;57.49;101493.78;15748947;28;20575;-63
2021/01/16 23:41:22;;;;;;;1999.90;999.90;;;;;;;1.63;56.79;101495.00;15747580;28;20054;-64
2021/01/16 23:48:54;;;;;;;1999.90;999.90;;;;;;;1.97;56.39;101480.03;15722345;28;20658;-64
2021/01/16 23:56:34;;;;;;;1999.90;999.90;;;;;;;2.14;56.20;101473.59;15746531;28;20059;-64
